Time;durP1;ratioP1;P1;durP2;ratioP2;P2;SDS_P1;SDS_P2;PMS_P1;PMS_P2;Temp;Humidity;BMP_temperature;BMP_pressure;BME280_temperature;BME280_humidity;BME280_pressure;Samples;Min_cycle;Max_cycle;Signal;HPM_P1;HPM_P2
2022/07/23 00:01:51;;;;;;;;;;;17.70;99.90;;;;;;5027086;28;19926;-71
2022/07/23 00:04:18;;;;;;;;;;;17.70;99.90;;;;;;5032006;28;19925;-71
2022/07/23 00:06:45;;;;;;;;;;;17.70;99.90;;;;;;5015507;28;20408;-71
2022/07/23 00:09:13;;;;;;;;;;;17.70;99.90;;;;;;5014571;28;19925;-71
2022/07/23 00:11:40;;;;;;;;;;;17.70;99.90;;;;;;5032065;28;19952;-71
2022/07/23 00:14:07;;;;;;;;;;;17.70;99.90;;;;;;5015417;28;19925;-71
2022/07/23 00:16:34;;;;;;;;;;;17.60;99.90;;;;;;5013258;28;19948;-71
2022/07/23 00:19:02;;;;;;;;;;;17.60;99.90;;;;;;5014899;28;19925;-71
2022/07/23 00:21:29;;;;;;;;;;;17.60;99.90;;;;;;5015122;28;19925;-71
2022/07/23 00:23:56;;;;;;;;;;;17.60;99.90;;;;;;5015140;28;19932;-71
2022/07/23 00:26:24;;;;;;;;;;;17.60;99.90;;;;;;5015328;28;19933;-71
2022/07/23 00:28:51;;;;;;;;;;;17.60;99.90;;;;;;5009412;28;19929;-71
2022/07/23 00:31:18;;;;;;;;;;;17.70;99.90;;;;;;5014931;28;19936;-71
2022/07/23 00:33:45;;;;;;;;;;;17.70;99.90;;;;;;5014827;28;20020;-71
2022/07/23 00:36:12;;;;;;;;;;;17.60;99.90;;;;;;5014855;28;19925;-71
2022/07/23 00:38:38;;;;;;;;;;;17.60;99.90;;;;;;5014577;28;20365;-71
2022/07/23 00:41:05;;;;;;;;;;;17.50;99.90;;;;;;5014880;28;19940;-71
2022/07/23 00:43:33;;;;;;;;;;;17.50;99.90;;;;;;5014556;28;19925;-71
2022/07/23 00:46:00;;;;;;;;;;;17.50;99.90;;;;;;5014770;28;19925;-71
2022/07/23 00:48:27;;;;;;;;;;;17.50;99.90;;;;;;5014365;28;19976;-71
2022/07/23 00:50:54;;;;;;;;;;;17.50;99.90;;;;;;5014473;28;19932;-71
2022/07/23 00:53:20;;;;;;;;;;;17.40;99.90;;;;;;5014806;28;19932;-70
2022/07/23 00:55:48;;;;;;;;;;;17.40;99.90;;;;;;5014781;28;19929;-71
2022/07/23 00:58:15;;;;;;;;;;;17.40;99.90;;;;;;5014440;28;19932;-70
2022/07/23 01:00:43;;;;;;;;;;;17.40;99.90;;;;;;5014224;28;19940;-71
2022/07/23 01:03:10;;;;;;;;;;;17.30;99.90;;;;;;5014425;28;19952;-71
2022/07/23 01:05:38;;;;;;;;;;;17.20;99.90;;;;;;5013742;28;19932;-70
2022/07/23 01:08:06;;;;;;;;;;;17.10;99.90;;;;;;5010896;28;20319;-71
2022/07/23 01:10:33;;;;;;;;;;;17.00;99.90;;;;;;5014297;28;19932;-70
2022/07/23 01:13:01;;;;;;;;;;;17.00;99.90;;;;;;5014359;28;19932;-71
2022/07/23 01:15:29;;;;;;;;;;;17.00;99.90;;;;;;5030657;28;19929;-71
2022/07/23 01:17:57;;;;;;;;;;;16.90;99.90;;;;;;5014213;28;19925;-70
2022/07/23 01:20:24;;;;;;;;;;;16.80;99.90;;;;;;5013864;28;19953;-71
2022/07/23 01:22:53;;;;;;;;;;;16.80;99.90;;;;;;5014151;28;19960;-71
2022/07/23 01:25:20;;;;;;;;;;;16.80;99.90;;;;;;5030646;28;19961;-71
2022/07/23 01:27:55;;;;;;;;;;;16.70;99.90;;;;;;5009434;28;19991;-71
2022/07/23 01:30:21;;;;;;;;;;;16.70;99.90;;;;;;5013658;28;19932;-70
2022/07/23 01:32:49;;;;;;;;;;;16.60;99.90;;;;;;5014112;28;19935;-71
2022/07/23 01:35:15;;;;;;;;;;;16.60;99.90;;;;;;5012761;28;19972;-71
2022/07/23 01:37:43;;;;;;;;;;;16.60;99.90;;;;;;5014065;28;20388;-71
2022/07/23 01:40:12;;;;;;;;;;;16.60;99.90;;;;;;5013505;28;19925;-71
2022/07/23 01:42:39;;;;;;;;;;;16.60;99.90;;;;;;5013705;28;19925;-70
2022/07/23 01:45:08;;;;;;;;;;;16.50;99.90;;;;;;5013432;28;19999;-70
2022/07/23 01:47:36;;;;;;;;;;;16.50;99.90;;;;;;5013939;28;19960;-71
2022/07/23 01:50:03;;;;;;;;;;;16.50;99.90;;;;;;5013437;28;19932;-70
2022/07/23 01:52:43;;;;;;;;;;;16.50;99.90;;;;;;5012478;28;20281;-70
2022/07/23 01:55:28;;;;;;;;;;;16.40;99.90;;;;;;5118958;27;19922;-69
2022/07/23 01:57:55;;;;;;;;;;;16.40;99.90;;;;;;5117002;28;19975;-70
2022/07/23 02:00:27;;;;;;;;;;;16.40;99.90;;;;;;5116718;27;19934;-69
2022/07/23 02:02:54;;;;;;;;;;;16.40;99.90;;;;;;5106830;28;19925;-69
2022/07/23 02:05:22;;;;;;;;;;;16.40;99.90;;;;;;5111318;28;19946;-70
2022/07/23 02:07:49;;;;;;;;;;;16.40;99.90;;;;;;5114627;28;20348;-70
2022/07/23 02:10:16;;;;;;;;;;;16.30;99.90;;;;;;5119813;27;19924;-70
2022/07/23 02:12:44;;;;;;;;;;;16.30;99.90;;;;;;5115241;28;19924;-70
2022/07/23 02:15:11;;;;;;;;;;;16.20;99.90;;;;;;5115909;28;19924;-70
2022/07/23 02:17:39;;;;;;;;;;;16.20;99.90;;;;;;5119820;28;20007;-69
2022/07/23 02:20:07;;;;;;;;;;;16.10;99.90;;;;;;5116149;28;19923;-70
2022/07/23 02:22:33;;;;;;;;;;;16.00;99.90;;;;;;5106251;28;19950;-70
2022/07/23 02:25:00;;;;;;;;;;;16.00;99.90;;;;;;5121937;28;20294;-70
2022/07/23 02:27:28;;;;;;;;;;;16.00;99.90;;;;;;5115606;27;19923;-69
2022/07/23 02:29:57;;;;;;;;;;;16.00;99.90;;;;;;5107567;28;19924;-69
2022/07/23 02:32:24;;;;;;;;;;;15.90;99.90;;;;;;5121958;28;19924;-69
2022/07/23 02:34:51;;;;;;;;;;;15.90;99.90;;;;;;5118329;27;19938;-69
2022/07/23 02:37:19;;;;;;;;;;;15.90;99.90;;;;;;5110103;28;20011;-69
2022/07/23 02:39:48;;;;;;;;;;;15.80;99.90;;;;;;5116859;28;19927;-69
2022/07/23 02:42:15;;;;;;;;;;;15.80;99.90;;;;;;5115715;27;19923;-69
2022/07/23 02:44:43;;;;;;;;;;;15.70;99.90;;;;;;5112517;28;19977;-69
2022/07/23 02:47:11;;;;;;;;;;;15.70;99.90;;;;;;5109296;28;19935;-69
2022/07/23 02:49:38;;;;;;;;;;;15.70;99.90;;;;;;5119228;27;19935;-70
2022/07/23 02:52:06;;;;;;;;;;;15.70;99.90;;;;;;5114299;28;19923;-70
2022/07/23 02:54:33;;;;;;;;;;;15.70;99.90;;;;;;5111125;28;19977;-70
2022/07/23 02:57:00;;;;;;;;;;;15.80;99.90;;;;;;5113965;27;19938;-69
2022/07/23 02:59:27;;;;;;;;;;;15.80;99.90;;;;;;5108774;28;19923;-69
2022/07/23 03:01:54;;;;;;;;;;;15.80;99.90;;;;;;5111716;28;20411;-70
2022/07/23 03:04:22;;;;;;;;;;;15.70;99.90;;;;;;5114018;28;19931;-69
2022/07/23 03:06:49;;;;;;;;;;;15.70;99.90;;;;;;5095910;27;20311;-69
2022/07/23 03:09:16;;;;;;;;;;;15.60;99.90;;;;;;5093328;28;19956;-69
2022/07/23 03:11:43;;;;;;;;;;;15.60;99.90;;;;;;5105172;28;19928;-69
2022/07/23 03:14:13;;;;;;;;;;;15.60;99.90;;;;;;5099482;28;20019;-69
2022/07/23 03:16:39;;;;;;;;;;;15.60;99.90;;;;;;5105372;28;19998;-70
2022/07/23 03:19:06;;;;;;;;;;;15.50;99.90;;;;;;5097949;28;19924;-70
2022/07/23 03:21:38;;;;;;;;;;;15.50;99.90;;;;;;5097932;28;19986;-70
2022/07/23 03:24:05;;;;;;;;;;;15.50;99.90;;;;;;5094961;28;20387;-71
2022/07/23 03:26:32;;;;;;;;;;;15.50;99.90;;;;;;5099239;28;19934;-71
2022/07/23 03:29:01;;;;;;;;;;;15.50;99.90;;;;;;5103663;28;19927;-70
2022/07/23 03:31:27;;;;;;;;;;;15.40;99.90;;;;;;5100365;27;19924;-70
2022/07/23 03:33:54;;;;;;;;;;;15.40;99.90;;;;;;5098198;28;19927;-70
2022/07/23 03:36:21;;;;;;;;;;;15.40;99.90;;;;;;5104319;28;19924;-70
2022/07/23 03:38:50;;;;;;;;;;;15.30;99.90;;;;;;5097640;28;20334;-72
2022/07/23 03:41:17;;;;;;;;;;;15.30;99.90;;;;;;5105303;28;19928;-71
2022/07/23 03:43:44;;;;;;;;;;;15.20;99.90;;;;;;5098473;28;19932;-70
2022/07/23 03:46:12;;;;;;;;;;;15.20;99.90;;;;;;5105990;28;19924;-70
2022/07/23 03:48:39;;;;;;;;;;;15.20;99.90;;;;;;5100911;28;19924;-70
2022/07/23 03:51:06;;;;;;;;;;;15.20;99.90;;;;;;5100942;28;19985;-70
2022/07/23 03:53:32;;;;;;;;;;;15.20;99.90;;;;;;5103841;28;19931;-70
2022/07/23 03:56:01;;;;;;;;;;;15.20;99.90;;;;;;5102360;28;19927;-70
2022/07/23 03:58:28;;;;;;;;;;;15.20;99.90;;;;;;5096661;28;19924;-70
2022/07/23 04:00:55;;;;;;;;;;;15.20;99.90;;;;;;5099856;28;19924;-70
2022/07/23 04:03:21;;;;;;;;;;;15.20;99.90;;;;;;5093138;28;19977;-72
2022/07/23 04:05:49;;;;;;;;;;;15.10;99.90;;;;;;5102105;28;19993;-70
2022/07/23 04:08:15;;;;;;;;;;;15.10;99.90;;;;;;5098287;28;19976;-70
2022/07/23 04:10:47;;;;;;;;;;;15.10;99.90;;;;;;5104672;28;19939;-70
2022/07/23 04:13:15;;;;;;;;;;;15.10;99.90;;;;;;5099628;28;19927;-70
2022/07/23 04:15:43;;;;;;;;;;;15.10;99.90;;;;;;5094026;28;20372;-70
2022/07/23 04:18:10;;;;;;;;;;;15.20;99.90;;;;;;5104638;28;19924;-70
2022/07/23 04:20:48;;;;;;;;;;;15.20;99.90;;;;;;5098400;28;20345;-70
2022/07/23 04:23:16;;;;;;;;;;;15.10;99.90;;;;;;5101534;28;19924;-70
2022/07/23 04:25:43;;;;;;;;;;;15.10;99.90;;;;;;5097479;28;19924;-70
2022/07/23 04:28:10;;;;;;;;;;;15.20;99.90;;;;;;5098863;28;19927;-70
2022/07/23 04:30:38;;;;;;;;;;;15.20;99.90;;;;;;5096726;28;20077;-69
2022/07/23 04:33:07;;;;;;;;;;;15.20;99.90;;;;;;5096594;28;20306;-70
2022/07/23 04:35:39;;;;;;;;;;;15.20;99.90;;;;;;5097245;28;19924;-70
2022/07/23 04:38:13;;;;;;;;;;;15.30;99.90;;;;;;5097403;28;19924;-70
2022/07/23 04:40:41;;;;;;;;;;;15.30;99.90;;;;;;5101125;28;20007;-69
2022/07/23 04:43:07;;;;;;;;;;;15.30;99.90;;;;;;5090041;28;19964;-70
2022/07/23 04:45:42;;;;;;;;;;;15.30;99.90;;;;;;5099949;28;19981;-70
2022/07/23 04:48:09;;;;;;;;;;;15.30;99.90;;;;;;5101624;28;20418;-70
2022/07/23 04:50:36;;;;;;;;;;;15.30;99.90;;;;;;5095461;28;19923;-69
2022/07/23 04:53:05;;;;;;;;;;;15.30;99.90;;;;;;5098334;28;19950;-70
2022/07/23 04:55:32;;;;;;;;;;;15.40;99.90;;;;;;5120829;27;19963;-70
2022/07/23 04:57:59;;;;;;;;;;;15.40;99.90;;;;;;5115191;27;20409;-77
2022/07/23 05:00:26;;;;;;;;;;;15.50;99.90;;;;;;5114012;27;19938;-77
2022/07/23 05:02:54;;;;;;;;;;;15.50;99.90;;;;;;5109521;27;20292;-77
2022/07/23 05:05:21;;;;;;;;;;;15.50;99.90;;;;;;5117208;27;19928;-77
2022/07/23 05:07:48;;;;;;;;;;;15.60;99.90;;;;;;5114560;27;19924;-76
2022/07/23 05:10:15;;;;;;;;;;;15.70;99.90;;;;;;5115036;27;19976;-76
2022/07/23 05:12:42;;;;;;;;;;;15.70;99.90;;;;;;5115319;27;19923;-77
2022/07/23 05:15:09;;;;;;;;;;;15.80;99.90;;;;;;5124486;27;19923;-76
2022/07/23 05:17:36;;;;;;;;;;;15.90;99.90;;;;;;5116517;27;19923;-77
2022/07/23 05:20:09;;;;;;;;;;;16.00;99.90;;;;;;5115544;27;20011;-77
2022/07/23 05:22:36;;;;;;;;;;;16.00;99.90;;;;;;5102365;28;20374;-76
2022/07/23 05:25:04;;;;;;;;;;;16.10;99.90;;;;;;5104117;28;19929;-77
2022/07/23 05:27:31;;;;;;;;;;;16.10;99.90;;;;;;5108446;27;19935;-77
2022/07/23 05:29:58;;;;;;;;;;;16.10;99.90;;;;;;5104006;27;19927;-76
2022/07/23 05:32:25;;;;;;;;;;;16.10;99.90;;;;;;5109246;27;19931;-76
2022/07/23 05:35:06;;;;;;;;;;;16.10;99.90;;;;;;5105718;27;19931;-76
2022/07/23 05:37:35;;;;;;;;;;;16.20;99.90;;;;;;5110300;27;19924;-77
2022/07/23 05:40:03;;;;;;;;;;;16.40;99.90;;;;;;5108290;27;20318;-75
2022/07/23 05:42:29;;;;;;;;;;;16.40;99.90;;;;;;5110537;27;19924;-75
2022/07/23 05:44:56;;;;;;;;;;;16.40;99.90;;;;;;5110743;27;19924;-75
2022/07/23 05:47:23;;;;;;;;;;;16.50;99.90;;;;;;5101371;27;20375;-75
2022/07/23 05:49:51;;;;;;;;;;;16.50;99.90;;;;;;5098509;27;19923;-74
2022/07/23 05:52:27;;;;;;;;;;;16.50;99.90;;;;;;5098834;28;20421;-74
2022/07/23 05:55:14;;;;;;;;;;;16.50;99.90;;;;;;5100523;28;19973;-74
2022/07/23 05:57:41;;;;;;;;;;;16.70;99.90;;;;;;5100164;28;19932;-76
2022/07/23 06:00:09;;;;;;;;;;;16.70;99.90;;;;;;5096060;28;19932;-75
2022/07/23 06:02:40;;;;;;;;;;;16.80;99.90;;;;;;5099223;28;20383;-75
2022/07/23 06:05:09;;;;;;;;;;;16.90;99.90;;;;;;5101755;28;19927;-73
2022/07/23 06:07:37;;;;;;;;;;;17.00;99.90;;;;;;5113535;28;19924;-72
2022/07/23 06:10:05;;;;;;;;;;;17.10;99.90;;;;;;5104548;28;19924;-74
2022/07/23 06:12:33;;;;;;;;;;;17.20;99.90;;;;;;5116704;28;19927;-72
2022/07/23 06:15:00;;;;;;;;;;;17.20;99.90;;;;;;5111167;28;19924;-72
2022/07/23 06:17:27;;;;;;;;;;;17.30;99.90;;;;;;5103629;28;20052;-73
2022/07/23 06:19:54;;;;;;;;;;;17.40;99.90;;;;;;5108781;28;19929;-72
2022/07/23 06:22:21;;;;;;;;;;;17.50;99.90;;;;;;5111765;28;19931;-72
2022/07/23 06:24:48;;;;;;;;;;;17.50;99.90;;;;;;5112473;28;19934;-71
2022/07/23 06:27:15;;;;;;;;;;;17.60;99.90;;;;;;5111111;28;19928;-72
2022/07/23 06:29:43;;;;;;;;;;;17.80;99.90;;;;;;5111535;28;19935;-72
2022/07/23 06:32:10;;;;;;;;;;;17.90;99.90;;;;;;5110981;28;19932;-72
2022/07/23 06:34:37;;;;;;;;;;;18.10;99.90;;;;;;5119273;28;19923;-71
2022/07/23 06:37:04;;;;;;;;;;;18.10;99.90;;;;;;5110367;28;20475;-71
2022/07/23 06:39:30;;;;;;;;;;;18.10;99.90;;;;;;5117628;27;19930;-72
2022/07/23 06:41:58;;;;;;;;;;;18.30;99.90;;;;;;5109271;27;19930;-72
2022/07/23 06:44:36;;;;;;;;;;;18.40;99.90;;;;;;5109890;27;19924;-71
2022/07/23 06:47:05;;;;;;;;;;;18.50;99.90;;;;;;5119259;27;19930;-71
2022/07/23 06:49:32;;;;;;;;;;;18.50;99.90;;;;;;5109544;27;20015;-72
2022/07/23 06:51:59;;;;;;;;;;;18.60;99.90;;;;;;5121537;27;19963;-72
2022/07/23 06:54:26;;;;;;;;;;;18.50;99.90;;;;;;5113204;27;19937;-72
2022/07/23 06:56:52;;;;;;;;;;;18.50;99.90;;;;;;5109358;27;19928;-72
2022/07/23 06:59:19;;;;;;;;;;;18.40;99.90;;;;;;5115605;27;19923;-72
2022/07/23 07:01:46;;;;;;;;;;;18.40;99.90;;;;;;5120558;27;20347;-72
2022/07/23 07:04:14;;;;;;;;;;;18.40;99.90;;;;;;5123838;27;20279;-72
2022/07/23 07:06:41;;;;;;;;;;;18.50;99.90;;;;;;5118821;27;19928;-72
2022/07/23 07:09:08;;;;;;;;;;;18.60;99.90;;;;;;5118507;27;19931;-72
2022/07/23 07:11:35;;;;;;;;;;;18.60;99.90;;;;;;5113831;27;19924;-72
2022/07/23 07:14:01;;;;;;;;;;;18.80;99.90;;;;;;5120505;27;19923;-72
2022/07/23 07:16:28;;;;;;;;;;;18.90;99.90;;;;;;5116004;27;20384;-71
2022/07/23 07:18:55;;;;;;;;;;;18.80;99.90;;;;;;5113842;27;19931;-72
2022/07/23 07:21:23;;;;;;;;;;;18.80;99.90;;;;;;5119740;27;19931;-72
2022/07/23 07:23:50;;;;;;;;;;;18.70;99.90;;;;;;5117266;27;19931;-71
2022/07/23 07:26:17;;;;;;;;;;;18.70;99.90;;;;;;5120476;27;19956;-71
2022/07/23 07:28:43;;;;;;;;;;;18.70;99.90;;;;;;5117750;27;20332;-72
2022/07/23 07:31:10;;;;;;;;;;;18.80;99.90;;;;;;5121984;27;19927;-72
2022/07/23 07:33:37;;;;;;;;;;;18.90;99.90;;;;;;5121646;27;19936;-72
2022/07/23 07:36:04;;;;;;;;;;;19.00;99.90;;;;;;5111096;27;19928;-72
2022/07/23 07:38:33;;;;;;;;;;;19.20;99.90;;;;;;5124190;27;19923;-72
2022/07/23 07:40:59;;;;;;;;;;;19.20;99.90;;;;;;5117408;27;19924;-72
2022/07/23 07:43:26;;;;;;;;;;;19.20;99.90;;;;;;5141785;22;19924;-69
2022/07/23 07:45:53;;;;;;;;;;;19.30;99.90;;;;;;5027918;28;20016;-72
2022/07/23 07:48:20;;;;;;;;;;;19.20;99.90;;;;;;5028525;28;19953;-69
2022/07/23 07:50:46;;;;;;;;;;;19.20;99.90;;;;;;5024034;28;19940;-72
2022/07/23 07:53:13;;;;;;;;;;;19.20;99.90;;;;;;5028514;28;19959;-69
2022/07/23 07:55:43;;;;;;;;;;;19.20;99.90;;;;;;5029028;28;20356;-71
2022/07/23 07:58:10;;;;;;;;;;;19.20;99.90;;;;;;5030522;28;20341;-71
2022/07/23 08:00:37;;;;;;;;;;;19.20;99.90;;;;;;5031255;28;19932;-71
2022/07/23 08:03:04;;;;;;;;;;;19.20;99.90;;;;;;5028522;28;19925;-70
2022/07/23 08:05:31;;;;;;;;;;;19.30;99.90;;;;;;5031202;28;19925;-70
2022/07/23 08:07:58;;;;;;;;;;;19.50;99.90;;;;;;5030823;28;20407;-70
2022/07/23 08:10:26;;;;;;;;;;;19.60;99.90;;;;;;5030687;28;19936;-72
2022/07/23 08:12:56;;;;;;;;;;;19.70;99.90;;;;;;5031733;28;19932;-69
2022/07/23 08:15:23;;;;;;;;;;;19.90;99.90;;;;;;5033157;28;19925;-70
2022/07/23 08:17:50;;;;;;;;;;;20.10;99.90;;;;;;5033469;28;19983;-69
2022/07/23 08:20:19;;;;;;;;;;;20.10;99.90;;;;;;5030714;28;19925;-69
2022/07/23 08:22:47;;;;;;;;;;;20.50;99.90;;;;;;5032441;28;19933;-70
2022/07/23 08:25:14;;;;;;;;;;;20.50;99.90;;;;;;5034643;28;19935;-71
2022/07/23 08:27:40;;;;;;;;;;;20.60;99.90;;;;;;5031179;28;19931;-69
2022/07/23 08:30:09;;;;;;;;;;;20.60;99.90;;;;;;5030557;28;19925;-70
2022/07/23 08:32:48;;;;;;;;;;;20.60;99.90;;;;;;5030928;28;19929;-70
2022/07/23 08:35:15;;;;;;;;;;;20.60;99.90;;;;;;5033062;28;19987;-71
2022/07/23 08:37:42;;;;;;;;;;;20.70;99.90;;;;;;5030540;28;20393;-71
2022/07/23 08:40:09;;;;;;;;;;;20.80;99.90;;;;;;5030402;28;20423;-70
2022/07/23 08:42:36;;;;;;;;;;;20.80;99.90;;;;;;5034881;28;20320;-71
2022/07/23 08:45:03;;;;;;;;;;;20.90;99.90;;;;;;5030545;28;19925;-70
2022/07/23 08:47:31;;;;;;;;;;;21.00;99.90;;;;;;5035724;28;19994;-70
2022/07/23 08:49:59;;;;;;;;;;;21.00;99.90;;;;;;5030383;28;19987;-70
2022/07/23 08:52:27;;;;;;;;;;;21.00;99.90;;;;;;5029163;28;19933;-71
2022/07/23 08:54:54;;;;;;;;;;;21.10;99.90;;;;;;5029930;28;19925;-71
2022/07/23 08:57:21;;;;;;;;;;;21.20;99.90;;;;;;5030565;28;19929;-71
2022/07/23 08:59:47;;;;;;;;;;;21.30;99.90;;;;;;5031939;28;20346;-72
2022/07/23 09:02:14;;;;;;;;;;;21.40;99.90;;;;;;5030227;28;19988;-70
2022/07/23 09:04:42;;;;;;;;;;;21.50;99.90;;;;;;5029561;28;20348;-70
2022/07/23 09:07:09;;;;;;;;;;;21.40;99.90;;;;;;5030058;28;19929;-70
2022/07/23 09:09:35;;;;;;;;;;;21.50;99.90;;;;;;5029385;28;19949;-71
2022/07/23 09:12:03;;;;;;;;;;;21.60;99.90;;;;;;5029850;28;20012;-70
2022/07/23 09:14:36;;;;;;;;;;;21.70;99.90;;;;;;5036566;28;20016;-69
2022/07/23 09:17:09;;;;;;;;;;;21.90;99.90;;;;;;5030417;28;19929;-70
2022/07/23 09:19:35;;;;;;;;;;;21.90;99.90;;;;;;5028530;28;19929;-70
2022/07/23 09:25:07;;;;;;;;;;;22.00;99.90;;;;;;5099745;27;19927;-71
2022/07/23 09:27:47;;;;;;;;;;;22.20;99.90;;;;;;5101955;28;19971;-71
2022/07/23 09:30:13;;;;;;;;;;;22.30;99.90;;;;;;5099171;28;19979;-72
2022/07/23 09:32:40;;;;;;;;;;;22.40;99.90;;;;;;5095739;28;20018;-71
2022/07/23 09:35:07;;;;;;;;;;;22.40;99.90;;;;;;5089863;28;20027;-70
2022/07/23 09:37:34;;;;;;;;;;;22.00;99.90;;;;;;5095846;28;20015;-71
2022/07/23 09:40:05;;;;;;;;;;;21.90;99.90;;;;;;5090511;28;19975;-71
2022/07/23 09:42:33;;;;;;;;;;;22.00;99.90;;;;;;5094965;28;19924;-72
2022/07/23 09:45:00;;;;;;;;;;;22.10;99.90;;;;;;5101059;28;19935;-70
2022/07/23 09:47:28;;;;;;;;;;;22.20;99.90;;;;;;5095268;28;19928;-68
2022/07/23 09:49:59;;;;;;;;;;;22.50;99.90;;;;;;5092020;28;19970;-72
2022/07/23 09:52:27;;;;;;;;;;;22.80;99.90;;;;;;5098968;28;20023;-73
2022/07/23 09:54:58;;;;;;;;;;;23.10;99.90;;;;;;5092485;28;19928;-72
2022/07/23 09:57:25;;;;;;;;;;;23.30;99.90;;;;;;5097726;28;19978;-73
2022/07/23 09:59:53;;;;;;;;;;;23.30;99.90;;;;;;5091655;28;19983;-72
2022/07/23 10:02:20;;;;;;;;;;;23.30;99.90;;;;;;5092666;28;19928;-72
2022/07/23 10:05:13;;;;;;;;;;;23.20;99.90;;;;;;5102432;28;19934;-72
2022/07/23 10:08:03;;;;;;;;;;;23.20;99.90;;;;;;5092029;28;19930;-72
2022/07/23 10:10:49;;;;;;;;;;;23.20;99.90;;;;;;5099608;28;20014;-71
2022/07/23 10:13:52;;;;;;;;;;;23.20;99.90;;;;;;5098537;28;19924;-70
2022/07/23 10:16:22;;;;;;;;;;;23.30;99.90;;;;;;5095387;28;19928;-70
2022/07/23 10:18:49;;;;;;;;;;;23.30;99.90;;;;;;5091835;28;19995;-71
2022/07/23 10:21:19;;;;;;;;;;;23.40;99.90;;;;;;5094982;28;19931;-69
2022/07/23 10:23:49;;;;;;;;;;;23.50;99.90;;;;;;5092334;28;20392;-68
2022/07/23 10:26:20;;;;;;;;;;;23.60;99.90;;;;;;5090455;28;19924;-70
2022/07/23 10:28:53;;;;;;;;;;;23.60;99.90;;;;;;5131913;27;19928;-66
2022/07/23 10:31:29;;;;;;;;;;;23.70;99.90;;;;;;5100465;28;19924;-77
2022/07/23 10:34:01;;;;;;;;;;;23.60;99.90;;;;;;5086457;28;19925;-71
2022/07/23 10:36:30;;;;;;;;;;;23.70;99.90;;;;;;5083035;28;19928;-71
2022/07/23 10:38:59;;;;;;;;;;;23.90;99.90;;;;;;5083042;28;20341;-71
2022/07/23 10:41:32;;;;;;;;;;;24.10;99.90;;;;;;5079544;28;20385;-71
2022/07/23 10:44:09;;;;;;;;;;;24.20;99.90;;;;;;5084109;28;19931;-71
2022/07/23 10:46:55;;;;;;;;;;;24.30;99.90;;;;;;5114699;27;19970;-71
2022/07/23 10:49:23;;;;;;;;;;;24.50;99.90;;;;;;5077168;28;19981;-71
2022/07/23 10:52:09;;;;;;;;;;;24.50;99.90;;;;;;5078757;28;20018;-70
2022/07/23 10:54:35;;;;;;;;;;;24.40;99.90;;;;;;5079633;28;19970;-71
2022/07/23 10:57:07;;;;;;;;;;;24.40;99.90;;;;;;5083412;28;19924;-70
2022/07/23 10:59:49;;;;;;;;;;;24.50;99.90;;;;;;5111897;27;20369;-71
2022/07/23 11:02:25;;;;;;;;;;;24.60;99.90;;;;;;5076837;28;19946;-71
2022/07/23 11:04:53;;;;;;;;;;;24.30;99.90;;;;;;5066716;28;19928;-69
2022/07/23 11:07:20;;;;;;;;;;;24.30;99.90;;;;;;5080449;28;20006;-70
2022/07/23 11:09:47;;;;;;;;;;;24.50;99.90;;;;;;5069235;28;19925;-69
2022/07/23 11:12:33;;;;;;;;;;;24.60;99.90;;;;;;5079204;28;19932;-70
2022/07/23 11:15:01;;;;;;;;;;;24.60;99.90;;;;;;5073091;28;19924;-71
2022/07/23 11:17:30;;;;;;;;;;;24.90;99.90;;;;;;5075065;28;19928;-71
2022/07/23 11:20:16;;;;;;;;;;;25.10;99.90;;;;;;5075496;28;19924;-70
2022/07/23 11:22:47;;;;;;;;;;;25.40;99.90;;;;;;5085592;28;20306;-71
2022/07/23 11:25:28;;;;;;;;;;;25.20;99.90;;;;;;5082942;28;19928;-71
2022/07/23 11:27:55;;;;;;;;;;;25.40;99.90;;;;;;5114172;27;19924;-71
2022/07/23 11:30:37;;;;;;;;;;;25.70;99.90;;;;;;5091355;28;20410;-71
2022/07/23 11:33:18;;;;;;;;;;;25.80;99.90;;;;;;5081200;28;19937;-71
2022/07/23 11:35:46;;;;;;;;;;;26.00;99.90;;;;;;5080780;28;20361;-70
2022/07/23 11:38:14;;;;;;;;;;;26.20;99.90;;;;;;5086390;28;19960;-70
2022/07/23 11:40:41;;;;;;;;;;;26.50;99.90;;;;;;5083643;28;19924;-70
2022/07/23 11:43:09;;;;;;;;;;;26.90;99.90;;;;;;5083718;28;20407;-71
2022/07/23 11:45:37;;;;;;;;;;;28.20;99.90;;;;;;5084227;28;20468;-71
2022/07/23 11:48:05;;;;;;;;;;;29.50;99.90;;;;;;5083756;28;19924;-71
2022/07/23 11:50:33;;;;;;;;;;;30.90;99.90;;;;;;5104465;27;19924;-70
2022/07/23 11:53:00;;;;;;;;;;;31.00;99.90;;;;;;5080091;28;19924;-71
2022/07/23 11:55:28;;;;;;;;;;;29.40;99.90;;;;;;5087176;28;19927;-70
2022/07/23 11:57:55;;;;;;;;;;;28.50;99.90;;;;;;5078481;28;19955;-70
2022/07/23 12:00:22;;;;;;;;;;;29.70;99.90;;;;;;5082815;28;19927;-70
2022/07/23 12:02:51;;;;;;;;;;;30.70;99.90;;;;;;5084808;28;19924;-70
2022/07/23 12:05:19;;;;;;;;;;;31.60;99.90;;;;;;5086709;28;19924;-70
2022/07/23 12:07:49;;;;;;;;;;;32.60;99.90;;;;;;5083475;28;19924;-70
2022/07/23 12:10:17;;;;;;;;;;;33.60;99.90;;;;;;5079297;28;19930;-70
2022/07/23 12:12:45;;;;;;;;;;;34.20;99.90;;;;;;5086879;28;20341;-70
2022/07/23 12:15:12;;;;;;;;;;;34.90;99.90;;;;;;5086538;28;19928;-71
2022/07/23 12:17:40;;;;;;;;;;;36.30;99.90;;;;;;5084764;28;19974;-71
2022/07/23 12:20:08;;;;;;;;;;;36.70;99.90;;;;;;5115186;27;19981;-70
2022/07/23 12:22:35;;;;;;;;;;;35.50;99.90;;;;;;5118373;27;20387;-71
2022/07/23 12:25:05;;;;;;;;;;;33.70;99.90;;;;;;5114951;27;19924;-69
2022/07/23 12:27:32;;;;;;;;;;;32.60;99.90;;;;;;5121418;27;19924;-69
2022/07/23 12:29:58;;;;;;;;;;;32.50;99.90;;;;;;5077624;28;19957;-69
2022/07/23 12:32:26;;;;;;;;;;;33.40;99.90;;;;;;5088425;28;19924;-69
2022/07/23 12:35:03;;;;;;;;;;;34.70;99.90;;;;;;5082659;28;19924;-70
2022/07/23 12:37:31;;;;;;;;;;;35.40;99.90;;;;;;5082705;28;20371;-70
2022/07/23 12:39:57;;;;;;;;;;;36.20;99.90;;;;;;5082277;28;19928;-71
2022/07/23 12:42:26;;;;;;;;;;;36.10;99.90;;;;;;5082813;28;19928;-70
2022/07/23 12:45:06;;;;;;;;;;;36.70;99.90;;;;;;5078435;28;19974;-71
2022/07/23 12:47:48;;;;;;;;;;;37.30;99.90;;;;;;5082562;28;19924;-70
2022/07/23 12:50:30;;;;;;;;;;;38.20;99.90;;;;;;5084030;28;19924;-70
2022/07/23 12:53:02;;;;;;;;;;;37.80;99.90;;;;;;5071449;28;19924;-70
2022/07/23 12:55:29;;;;;;;;;;;36.60;99.90;;;;;;5075744;28;19931;-71
2022/07/23 12:58:05;;;;;;;;;;;35.80;99.90;;;;;;5085501;28;19977;-70
2022/07/23 13:00:32;;;;;;;;;;;35.60;99.90;;;;;;5084691;28;19924;-70
2022/07/23 13:02:59;;;;;;;;;;;35.90;99.90;;;;;;5078912;28;19976;-70
2022/07/23 13:05:25;;;;;;;;;;;36.20;99.90;;;;;;5086452;28;20410;-71
2022/07/23 13:07:52;;;;;;;;;;;35.90;99.90;;;;;;5073975;28;20328;-71
2022/07/23 13:10:19;;;;;;;;;;;35.90;99.90;;;;;;5085728;28;19985;-71
2022/07/23 13:12:46;;;;;;;;;;;36.40;99.90;;;;;;5085531;28;19932;-71
2022/07/23 13:15:14;;;;;;;;;;;37.10;99.90;;;;;;5085739;28;20390;-71
2022/07/23 13:17:44;;;;;;;;;;;37.30;99.90;;;;;;5075199;28;20329;-71
2022/07/23 13:20:11;;;;;;;;;;;36.90;99.90;;;;;;5080903;28;19924;-71
2022/07/23 13:22:38;;;;;;;;;;;36.80;99.90;;;;;;5083784;28;19924;-70
2022/07/23 13:25:05;;;;;;;;;;;37.00;99.90;;;;;;5086521;28;19924;-70
2022/07/23 13:27:32;;;;;;;;;;;37.70;99.90;;;;;;5084557;28;19923;-71
2022/07/23 13:29:58;;;;;;;;;;;38.70;99.90;;;;;;5085809;28;20379;-69
2022/07/23 13:32:26;;;;;;;;;;;39.50;99.90;;;;;;5077369;28;19931;-70
2022/07/23 13:34:53;;;;;;;;;;;39.80;99.90;;;;;;5105256;28;19927;-70
2022/07/23 13:37:20;;;;;;;;;;;39.90;99.90;;;;;;5113824;28;19936;-70
2022/07/23 13:39:47;;;;;;;;;;;40.10;99.80;;;;;;5081071;28;19931;-70
2022/07/23 13:42:14;;;;;;;;;;;39.90;99.20;;;;;;5087957;28;19950;-70
2022/07/23 13:44:41;;;;;;;;;;;38.80;99.00;;;;;;5076805;28;19928;-70
2022/07/23 13:47:07;;;;;;;;;;;38.50;99.90;;;;;;5076197;28;19931;-70
2022/07/23 13:49:36;;;;;;;;;;;37.80;99.30;;;;;;5088400;28;19977;-70
2022/07/23 13:52:03;;;;;;;;;;;37.90;99.60;;;;;;5083359;28;19924;-69
2022/07/23 13:54:29;;;;;;;;;;;38.20;99.50;;;;;;5072090;28;20400;-68
2022/07/23 13:56:56;;;;;;;;;;;38.30;99.50;;;;;;5071433;28;19935;-69
2022/07/23 13:59:23;;;;;;;;;;;39.10;99.80;;;;;;5071441;28;20387;-69
2022/07/23 14:01:50;;;;;;;;;;;39.60;99.10;;;;;;5106370;28;19936;-69
2022/07/23 14:04:17;;;;;;;;;;;40.20;98.90;;;;;;5106666;28;19927;-69
2022/07/23 14:06:45;;;;;;;;;;;40.50;97.90;;;;;;5111219;28;19924;-69
2022/07/23 14:09:12;;;;;;;;;;;40.70;97.50;;;;;;5083863;28;19974;-69
2022/07/23 14:11:38;;;;;;;;;;;39.40;97.50;;;;;;5083940;28;19924;-69
2022/07/23 14:14:05;;;;;;;;;;;39.20;97.60;;;;;;5085819;28;19997;-69
2022/07/23 14:16:32;;;;;;;;;;;39.30;98.20;;;;;;5087003;28;20392;-69
2022/07/23 14:18:59;;;;;;;;;;;39.00;97.60;;;;;;5080543;28;19931;-69
2022/07/23 14:21:26;;;;;;;;;;;39.00;98.70;;;;;;5083709;28;19924;-70
2022/07/23 14:23:54;;;;;;;;;;;38.60;97.60;;;;;;5082084;28;19924;-69
2022/07/23 14:26:21;;;;;;;;;;;38.10;97.40;;;;;;5083417;28;19984;-70
2022/07/23 14:28:48;;;;;;;;;;;37.60;97.40;;;;;;5083479;28;19923;-70